createdAt,value
2019-02-08T00:01:35.365Z,6.60
2019-02-08T00:04:02.720Z,3.77
2019-02-08T00:06:30.221Z,5.87
2019-02-08T00:08:57.545Z,4.47
2019-02-08T00:11:25.652Z,5.80
2019-02-08T00:13:53.029Z,6.40
2019-02-08T00:16:20.790Z,6.30
2019-02-08T00:18:48.274Z,11.13
2019-02-08T00:21:15.867Z,9.00
2019-02-08T00:23:43.145Z,10.80
2019-02-08T00:26:10.596Z,9.83
2019-02-08T00:28:38.010Z,11.80
2019-02-08T00:31:05.548Z,7.60
2019-02-08T00:33:32.817Z,8.90
2019-02-08T00:36:00.477Z,10.07
2019-02-08T00:38:27.824Z,11.43
2019-02-08T00:40:55.193Z,14.10
2019-02-08T00:43:22.562Z,13.77
2019-02-08T00:45:49.851Z,9.10
2019-02-08T00:48:17.421Z,17.33
2019-02-08T00:50:44.741Z,8.77
2019-02-08T00:53:12.328Z,5.93
2019-02-08T00:55:39.909Z,9.70
2019-02-08T00:58:07.256Z,8.57
2019-02-08T01:00:34.659Z,7.50
2019-02-08T01:03:02.769Z,10.90
2019-02-08T01:05:30.030Z,7.50
2019-02-08T01:07:57.625Z,10.47
2019-02-08T01:10:29.173Z,7.50
2019-02-08T01:12:57.017Z,8.30
2019-02-08T01:15:25.075Z,6.90
2019-02-08T01:17:52.705Z,7.73
2019-02-08T01:20:21.486Z,6.50
2019-02-08T01:22:49.470Z,7.30
2019-02-08T01:25:17.771Z,7.40
2019-02-08T01:27:45.176Z,7.30
2019-02-08T01:30:13.846Z,5.50
2019-02-08T01:32:41.394Z,13.40
2019-02-08T01:35:11.239Z,6.43
2019-02-08T01:37:38.501Z,6.27
2019-02-08T01:40:10.463Z,6.43
2019-02-08T01:42:37.719Z,7.60
2019-02-08T01:45:06.789Z,5.50
2019-02-08T01:47:35.274Z,12.23
2019-02-08T01:50:03.056Z,6.60
2019-02-08T01:52:30.424Z,7.27
2019-02-08T01:54:58.648Z,10.27
2019-02-08T01:57:25.925Z,11.10
2019-02-08T01:59:53.283Z,14.80
2019-02-08T02:02:20.562Z,13.30
2019-02-08T02:04:47.897Z,11.03
2019-02-08T02:07:15.178Z,10.97
2019-02-08T02:09:42.651Z,12.37
2019-02-08T02:12:10.240Z,11.17
2019-02-08T02:14:37.602Z,12.13
2019-02-08T02:17:04.947Z,11.27
2019-02-08T02:19:32.618Z,12.00
2019-02-08T02:21:59.882Z,10.90
2019-02-08T02:24:27.353Z,7.53
2019-02-08T02:26:54.685Z,8.43
2019-02-08T02:29:21.962Z,8.53
2019-02-08T02:31:49.233Z,6.37
2019-02-08T02:34:16.669Z,6.73
2019-02-08T02:36:43.990Z,8.40
2019-02-08T02:39:11.529Z,7.13
2019-02-08T02:41:38.880Z,5.93
2019-02-08T02:44:06.498Z,10.13
2019-02-08T02:46:33.853Z,7.07
2019-02-08T02:49:01.184Z,7.90
2019-02-08T02:51:28.531Z,7.50
2019-02-08T02:53:55.784Z,7.00
2019-02-08T02:56:23.135Z,5.60
2019-02-08T02:58:50.584Z,7.80
2019-02-08T03:01:17.976Z,7.20
2019-02-08T03:03:45.413Z,9.70
2019-02-08T03:06:13.356Z,5.10
2019-02-08T03:08:40.634Z,9.10
2019-02-08T03:11:07.914Z,6.87
2019-02-08T03:13:35.197Z,10.30
2019-02-08T03:16:02.578Z,7.47
2019-02-08T03:18:30.748Z,8.10
2019-02-08T03:20:58.049Z,9.43
2019-02-08T03:23:26.298Z,5.87
2019-02-08T03:25:53.588Z,7.37
2019-02-08T03:28:20.868Z,6.47
2019-02-08T03:30:49.901Z,7.37
2019-02-08T03:33:17.491Z,7.43
2019-02-08T03:35:45.656Z,7.30
2019-02-08T03:38:13.215Z,6.20
2019-02-08T03:40:40.622Z,8.23
2019-02-08T03:43:08.518Z,9.20
2019-02-08T03:45:40.388Z,8.10
2019-02-08T03:48:08.095Z,7.80
2019-02-08T03:50:35.560Z,9.90
2019-02-08T03:53:03.134Z,5.80
2019-02-08T03:55:30.408Z,8.03
2019-02-08T03:57:57.724Z,7.60
2019-02-08T04:00:30.768Z,8.67
2019-02-08T04:02:58.440Z,11.13
2019-02-08T04:05:25.798Z,11.10
2019-02-08T04:07:53.437Z,9.30
2019-02-08T04:10:20.765Z,9.33
2019-02-08T04:12:48.098Z,7.53
2019-02-08T04:15:16.800Z,8.13
2019-02-08T04:17:44.230Z,8.20
2019-02-08T04:20:12.876Z,5.13
2019-02-08T04:22:40.325Z,6.33
2019-02-08T04:25:09.064Z,7.80
2019-02-08T04:27:36.394Z,8.37
2019-02-08T04:30:06.436Z,6.13
2019-02-08T04:32:33.729Z,7.50
2019-02-08T04:35:01.016Z,9.73
2019-02-08T04:37:28.294Z,8.50
2019-02-08T04:39:57.491Z,7.73
2019-02-08T04:42:24.926Z,7.70
2019-02-08T04:44:52.414Z,5.93
2019-02-08T04:47:20.744Z,6.87
2019-02-08T04:49:48.079Z,7.03
2019-02-08T04:52:15.338Z,7.13
2019-02-08T04:54:42.646Z,8.57
2019-02-08T04:57:09.912Z,13.50
2019-02-08T04:59:37.334Z,13.57
2019-02-08T05:02:04.841Z,7.80
2019-02-08T05:04:32.201Z,9.47
2019-02-08T05:06:59.537Z,8.07
2019-02-08T05:09:28.401Z,10.97
2019-02-08T05:11:56.012Z,9.37
2019-02-08T05:14:23.462Z,7.93
2019-02-08T05:16:51.175Z,8.07
2019-02-08T05:19:18.647Z,8.43
2019-02-08T05:21:46.247Z,8.67
2019-02-08T05:24:13.583Z,7.57
2019-02-08T05:26:40.891Z,8.50
2019-02-08T05:29:08.397Z,14.10
2019-02-08T05:31:35.922Z,12.90
2019-02-08T05:34:03.245Z,11.60
2019-02-08T05:36:30.869Z,12.70
2019-02-08T05:38:58.312Z,9.87
2019-02-08T05:41:25.606Z,11.20
2019-02-08T05:43:52.944Z,11.30
2019-02-08T05:46:20.248Z,9.07
2019-02-08T05:48:47.769Z,7.87
2019-02-08T05:51:15.611Z,9.03
2019-02-08T05:53:42.969Z,6.97
2019-02-08T05:56:10.283Z,9.10
2019-02-08T05:58:37.538Z,6.20
2019-02-08T06:01:04.967Z,11.63
2019-02-08T06:03:32.313Z,11.50
2019-02-08T06:05:59.975Z,13.17
2019-02-08T06:08:27.379Z,10.00
2019-02-08T06:10:54.730Z,9.90
2019-02-08T06:13:22.111Z,8.50
2019-02-08T06:15:49.374Z,14.53
2019-02-08T06:18:16.665Z,9.03
2019-02-08T06:20:44.718Z,7.50
2019-02-08T06:23:12.010Z,7.30
2019-02-08T06:25:39.938Z,7.53
2019-02-08T06:28:08.429Z,14.13
2019-02-08T06:30:36.041Z,11.43
2019-02-08T06:33:03.959Z,10.63
2019-02-08T06:35:31.297Z,11.97
2019-02-08T06:37:58.685Z,12.03
2019-02-08T06:40:27.235Z,7.70
2019-02-08T06:42:55.012Z,8.80
2019-02-08T06:45:23.518Z,10.20
2019-02-08T06:47:50.963Z,13.27
2019-02-08T06:50:19.686Z,12.33
2019-02-08T06:52:47.033Z,16.23
2019-02-08T06:55:14.488Z,17.17
2019-02-08T06:57:43.661Z,16.50
2019-02-08T07:00:13.062Z,14.73
2019-02-08T07:02:42.202Z,14.50
2019-02-08T07:05:11.798Z,14.40
2019-02-08T07:07:40.687Z,17.30
2019-02-08T07:10:14.209Z,11.77
2019-02-08T07:12:49.279Z,10.87
2019-02-08T07:15:27.580Z,10.27
2019-02-08T07:18:02.348Z,9.30
2019-02-08T07:20:34.360Z,14.70
2019-02-08T07:23:15.628Z,10.13
2019-02-08T07:26:02.934Z,11.03
2019-02-08T07:28:31.960Z,12.27
2019-02-08T07:31:00.976Z,13.10
2019-02-08T07:33:29.885Z,9.47
2019-02-08T07:36:08.371Z,13.87
2019-02-08T07:38:37.687Z,11.10
2019-02-08T07:41:23.842Z,11.53
2019-02-08T07:43:53.011Z,14.43
2019-02-08T07:46:28.725Z,16.50
2019-02-08T07:49:00.996Z,10.17
2019-02-08T07:51:34.013Z,15.23
2019-02-08T07:54:17.778Z,15.73
2019-02-08T07:56:55.735Z,16.57
2019-02-08T07:59:31.369Z,16.60
2019-02-08T08:02:18.908Z,12.43
2019-02-08T08:04:50.758Z,15.73
2019-02-08T08:07:26.250Z,12.87
2019-02-08T08:09:55.311Z,14.63
2019-02-08T08:12:24.864Z,10.13
2019-02-08T08:14:54.142Z,10.67
2019-02-08T08:17:23.131Z,10.50
2019-02-08T08:19:55.220Z,8.80
2019-02-08T08:22:40.455Z,9.23
2019-02-08T08:25:15.989Z,11.10
2019-02-08T08:28:01.678Z,12.17
2019-02-08T08:30:34.020Z,10.73
2019-02-08T08:33:03.464Z,12.03
2019-02-08T08:35:48.986Z,10.13
2019-02-08T08:38:26.871Z,15.30
2019-02-08T08:41:13.968Z,12.60
2019-02-08T08:43:42.866Z,15.03
2019-02-08T08:46:14.739Z,9.70
2019-02-08T08:48:49.584Z,8.17
2019-02-08T08:51:24.115Z,10.90
2019-02-08T08:53:52.935Z,8.00
2019-02-08T08:56:27.966Z,8.33
2019-02-08T08:59:13.639Z,9.10
2019-02-08T09:01:45.368Z,8.57
2019-02-08T09:04:30.750Z,9.40
2019-02-08T09:09:56.547Z,11.40
2019-02-08T09:12:31.559Z,9.80
2019-02-08T09:13:52.792Z,12.03
2019-02-08T09:15:03.130Z,7.73
2019-02-08T09:17:31.961Z,10.30
2019-02-08T09:20:00.808Z,7.03
2019-02-08T09:22:35.333Z,5.93
2019-02-08T09:25:04.166Z,13.33
2019-02-08T09:27:35.891Z,9.13
2019-02-08T09:30:17.009Z,9.87
2019-02-08T09:32:55.333Z,9.00
2019-02-08T09:35:33.205Z,8.90
2019-02-08T09:38:08.166Z,7.90
2019-02-08T09:40:39.883Z,7.70
2019-02-08T09:43:25.422Z,14.73
2019-02-08T09:46:00.052Z,7.03
2019-02-08T09:48:35.419Z,10.83
2019-02-08T09:51:10.662Z,6.80
2019-02-08T09:53:42.627Z,8.23
2019-02-08T09:56:11.484Z,10.00
2019-02-08T09:58:57.097Z,5.90
2019-02-08T10:01:26.007Z,5.23
2019-02-08T10:03:54.959Z,4.50
2019-02-08T10:06:29.969Z,4.27
2019-02-08T10:09:04.732Z,6.30
2019-02-08T10:11:33.849Z,3.93
2019-02-08T10:14:20.798Z,4.27
2019-02-08T10:16:56.710Z,8.93
2019-02-08T10:19:34.855Z,3.83
2019-02-08T10:22:03.838Z,4.10
2019-02-08T10:24:35.613Z,4.70
2019-02-08T10:27:04.422Z,6.03
2019-02-08T10:29:36.363Z,4.47
2019-02-08T10:32:14.318Z,2.60
2019-02-08T10:34:49.183Z,4.00
2019-02-08T10:37:34.773Z,5.43
2019-02-08T10:40:18.632Z,7.07
2019-02-08T10:43:05.772Z,3.97
2019-02-08T10:45:52.420Z,3.47
2019-02-08T10:48:37.975Z,2.90
2019-02-08T10:51:06.788Z,4.20
2019-02-08T10:53:53.181Z,4.43
2019-02-08T10:56:21.574Z,5.60
2019-02-08T10:58:59.459Z,2.67
2019-02-08T11:01:45.030Z,3.67
2019-02-08T11:04:30.933Z,8.30
2019-02-08T11:06:59.741Z,3.40
2019-02-08T11:09:37.389Z,5.97
2019-02-08T11:12:06.201Z,8.10
2019-02-08T11:14:37.969Z,7.00
2019-02-08T11:17:09.452Z,5.83
2019-02-08T11:19:36.293Z,3.60
2019-02-08T11:22:03.749Z,3.93
2019-02-08T11:24:32.186Z,3.50
2019-02-08T11:27:01.815Z,6.80
2019-02-08T11:29:29.514Z,5.20
2019-02-08T11:31:56.848Z,5.23
2019-02-08T11:34:24.210Z,3.00
2019-02-08T11:36:51.583Z,5.23
2019-02-08T11:39:19.019Z,5.73
2019-02-08T11:41:46.663Z,3.83
2019-02-08T11:44:14.041Z,2.47
2019-02-08T11:46:41.418Z,6.40
2019-02-08T11:49:08.917Z,2.23
2019-02-08T11:51:36.197Z,2.27
2019-02-08T11:54:04.549Z,4.80
2019-02-08T11:56:31.934Z,4.90
2019-02-08T11:58:59.367Z,5.00
2019-02-08T12:01:28.267Z,3.50
2019-02-08T12:03:55.554Z,6.87
2019-02-08T12:06:24.037Z,3.77
2019-02-08T12:08:51.757Z,3.87
2019-02-08T12:11:19.350Z,5.57
2019-02-08T12:13:46.663Z,8.33
2019-02-08T12:16:14.061Z,7.70
2019-02-08T12:18:41.437Z,1.77
2019-02-08T12:21:08.774Z,10.37
2019-02-08T12:23:36.126Z,3.63
2019-02-08T12:26:04.946Z,5.47
2019-02-08T12:28:32.328Z,5.03
2019-02-08T12:30:59.887Z,6.50
2019-02-08T12:33:28.191Z,5.57
2019-02-08T12:35:55.537Z,4.00
2019-02-08T12:38:22.842Z,5.53
2019-02-08T12:40:50.115Z,7.23
2019-02-08T12:43:17.493Z,4.17
2019-02-08T12:45:44.871Z,7.03
2019-02-08T12:48:12.822Z,3.20
2019-02-08T12:50:40.211Z,3.47
2019-02-08T12:53:07.460Z,4.60
2019-02-08T12:55:34.744Z,4.50
2019-02-08T12:58:02.067Z,7.23
2019-02-08T13:00:29.491Z,5.20
2019-02-08T13:02:56.793Z,4.43
2019-02-08T13:05:24.152Z,4.80
2019-02-08T13:07:51.468Z,7.63
2019-02-08T13:10:20.005Z,6.43
2019-02-08T13:12:47.512Z,8.00
2019-02-08T13:15:15.920Z,6.97
2019-02-08T13:17:44.816Z,2.57
2019-02-08T13:20:22.782Z,2.90
2019-02-08T13:22:50.196Z,3.47
2019-02-08T13:25:17.760Z,3.50
2019-02-08T13:27:45.368Z,3.20
2019-02-08T13:30:20.305Z,4.07
2019-02-08T13:32:47.949Z,5.20
2019-02-08T13:35:15.440Z,3.57
2019-02-08T13:37:42.749Z,5.87
2019-02-08T13:40:11.711Z,6.30
2019-02-08T13:42:39.108Z,5.77
2019-02-08T13:45:09.301Z,4.77
2019-02-08T13:47:36.682Z,3.20
2019-02-08T13:50:05.540Z,5.07
2019-02-08T13:52:32.924Z,2.70
2019-02-08T13:55:00.264Z,2.40
2019-02-08T13:57:27.640Z,5.63
2019-02-08T13:59:55.010Z,4.27
2019-02-08T14:02:22.685Z,5.33
2019-02-08T14:04:50.021Z,3.10
2019-02-08T14:07:17.489Z,2.70
2019-02-08T14:09:44.920Z,2.23
2019-02-08T14:12:12.238Z,5.40
2019-02-08T14:14:39.895Z,2.27
2019-02-08T14:17:07.482Z,8.30
2019-02-08T14:19:35.187Z,6.17
2019-02-08T14:22:03.629Z,5.53
2019-02-08T14:24:30.903Z,2.50
2019-02-08T14:26:59.090Z,3.73
2019-02-08T14:29:26.553Z,1.77
2019-02-08T14:31:53.822Z,5.67
2019-02-08T14:34:21.198Z,7.03
2019-02-08T14:36:48.510Z,4.20
2019-02-08T14:39:15.776Z,3.70
2019-02-08T14:41:43.129Z,4.10
2019-02-08T14:44:10.564Z,3.70
2019-02-08T14:46:37.977Z,6.33
2019-02-08T14:49:05.406Z,6.20
2019-02-08T14:51:32.785Z,9.60
2019-02-08T14:54:01.377Z,3.30
2019-02-08T14:56:30.676Z,4.93
2019-02-08T14:58:58.008Z,3.63
2019-02-08T15:01:25.396Z,5.90
2019-02-08T15:03:52.778Z,4.73
2019-02-08T15:06:20.167Z,6.23
2019-02-08T15:08:47.653Z,4.83
2019-02-08T15:11:15.825Z,5.67
2019-02-08T15:13:43.989Z,2.30
2019-02-08T15:16:12.421Z,3.47
2019-02-08T15:18:39.836Z,9.20
2019-02-08T15:21:07.164Z,3.60
2019-02-08T15:23:34.622Z,6.00
2019-02-08T15:26:01.994Z,13.07
2019-02-08T15:28:29.309Z,3.60
2019-02-08T15:30:56.639Z,8.73
2019-02-08T15:33:24.438Z,9.60
2019-02-08T15:35:51.811Z,6.93
2019-02-08T15:38:20.043Z,6.53
2019-02-08T15:40:48.713Z,7.90
2019-02-08T15:43:17.314Z,7.00
2019-02-08T15:45:46.525Z,2.20
2019-02-08T15:48:14.248Z,11.00
2019-02-08T15:50:41.928Z,9.27
2019-02-08T15:53:09.290Z,11.03
2019-02-08T15:55:38.563Z,12.60
2019-02-08T15:58:06.078Z,10.50
2019-02-08T16:00:33.591Z,6.37
2019-02-08T16:03:00.963Z,6.23
2019-02-08T16:05:30.159Z,7.00
2019-02-08T16:07:57.841Z,4.70
2019-02-08T16:10:25.402Z,8.13
2019-02-08T16:12:52.984Z,12.30
2019-02-08T16:15:22.202Z,13.20
2019-02-08T16:17:50.106Z,6.67
2019-02-08T16:20:21.588Z,7.70
2019-02-08T16:22:49.371Z,7.87
2019-02-08T16:25:18.646Z,18.80
2019-02-08T16:27:47.057Z,4.83
2019-02-08T16:30:15.904Z,5.53
2019-02-08T16:32:43.469Z,6.57
2019-02-08T16:35:13.227Z,4.33
2019-02-08T16:37:40.589Z,7.13
2019-02-08T16:40:31.507Z,7.13
2019-02-08T16:42:58.933Z,7.50
2019-02-08T16:45:27.563Z,10.90
2019-02-08T16:47:55.323Z,9.10
2019-02-08T16:50:23.813Z,9.17
2019-02-08T16:52:51.321Z,9.47
2019-02-08T16:55:19.367Z,12.43
2019-02-08T16:57:47.995Z,16.10
2019-02-08T17:00:17.188Z,8.47
2019-02-08T17:02:45.250Z,11.67
2019-02-08T17:05:13.839Z,12.47
2019-02-08T17:07:41.181Z,18.13
2019-02-08T17:10:10.021Z,10.10
2019-02-08T17:12:37.451Z,12.13
2019-02-08T17:15:06.549Z,6.60
2019-02-08T17:17:34.552Z,10.10
2019-02-08T17:20:01.880Z,6.97
2019-02-08T17:22:29.230Z,8.77
2019-02-08T17:24:56.548Z,7.20
2019-02-08T17:27:24.465Z,8.57
2019-02-08T17:29:52.170Z,8.90
2019-02-08T17:32:19.527Z,10.10
2019-02-08T17:34:46.842Z,8.30
2019-02-08T17:37:14.219Z,10.47
2019-02-08T17:39:41.547Z,9.27
2019-02-08T17:42:08.957Z,10.07
2019-02-08T17:44:36.250Z,8.70
2019-02-08T17:47:04.387Z,8.33
2019-02-08T17:49:31.905Z,11.33
2019-02-08T17:51:59.443Z,6.83
2019-02-08T17:54:27.137Z,10.13
2019-02-08T17:56:54.662Z,11.00
2019-02-08T17:59:22.522Z,10.27
2019-02-08T18:01:50.242Z,10.90
2019-02-08T18:04:17.852Z,7.03
2019-02-08T18:06:45.845Z,9.10
2019-02-08T18:09:13.126Z,10.67
2019-02-08T18:11:40.547Z,11.03
2019-02-08T18:14:07.920Z,12.50
2019-02-08T18:16:35.253Z,11.20
2019-02-08T18:19:02.710Z,10.00
2019-02-08T18:21:30.084Z,14.40
2019-02-08T18:26:16.245Z,9.27
2019-02-08T18:28:44.559Z,11.60
2019-02-08T18:31:14.017Z,9.03
2019-02-08T18:33:42.402Z,12.63
2019-02-08T18:36:11.926Z,13.83
2019-02-08T18:38:40.268Z,10.90
2019-02-08T18:41:08.810Z,12.63
2019-02-08T18:43:37.177Z,12.27
2019-02-08T18:46:05.948Z,13.67
2019-02-08T18:48:34.330Z,10.80
2019-02-08T18:51:03.796Z,10.70
2019-02-08T18:53:33.151Z,10.27
2019-02-08T18:56:01.699Z,10.13
2019-02-08T18:58:31.028Z,13.23
2019-02-08T19:00:59.362Z,14.70
2019-02-08T19:03:30.532Z,10.97
2019-02-08T19:05:58.883Z,11.47
2019-02-08T19:08:27.520Z,10.30
2019-02-08T19:10:56.115Z,10.00
2019-02-08T19:13:24.901Z,12.77
2019-02-08T19:15:53.452Z,10.50
2019-02-08T19:18:22.141Z,13.10
2019-02-08T19:20:50.571Z,10.73
2019-02-08T19:23:19.186Z,11.57
2019-02-08T19:25:47.919Z,12.30
2019-02-08T19:28:16.287Z,18.13
2019-02-08T19:30:46.173Z,13.17
2019-02-08T19:33:14.861Z,12.30
2019-02-08T19:35:43.224Z,12.50
2019-02-08T19:38:12.900Z,11.20
2019-02-08T19:40:48.512Z,15.17
2019-02-08T19:43:17.058Z,14.20
2019-02-08T19:45:45.758Z,11.53
2019-02-08T19:48:14.210Z,12.40
2019-02-08T19:50:45.151Z,13.70
2019-02-08T19:53:16.290Z,11.97
2019-02-08T19:55:44.647Z,11.57
2019-02-08T19:58:13.293Z,11.27
2019-02-08T20:00:43.692Z,11.63
2019-02-08T20:03:13.975Z,12.87
2019-02-08T20:05:42.596Z,8.60
2019-02-08T20:08:12.639Z,12.90
2019-02-08T20:10:47.466Z,10.43
2019-02-08T20:13:17.549Z,8.77
2019-02-08T20:15:46.057Z,10.70
2019-02-08T20:18:17.221Z,7.50
2019-02-08T20:20:45.715Z,8.87
2019-02-08T20:23:17.399Z,38.83
2019-02-08T20:25:46.366Z,22.13
2019-02-08T20:28:15.135Z,18.73
2019-02-08T20:30:45.336Z,21.67
2019-02-08T20:33:16.269Z,25.20
2019-02-08T20:35:44.837Z,42.17
2019-02-08T20:38:16.378Z,31.33
2019-02-08T20:40:48.349Z,32.47
2019-02-08T20:43:18.167Z,30.57
2019-02-08T20:45:46.737Z,24.23
2019-02-08T20:48:18.151Z,23.20
2019-02-08T20:50:46.793Z,17.60
2019-02-08T20:53:17.018Z,19.37
2019-02-08T20:55:45.503Z,22.77
2019-02-08T20:58:14.093Z,22.00
2019-02-08T21:00:49.528Z,20.00
2019-02-08T21:03:22.415Z,26.83
2019-02-08T21:05:52.661Z,26.60
2019-02-08T21:08:21.226Z,23.43
2019-02-08T21:10:49.685Z,23.57
2019-02-08T21:13:18.119Z,28.80
2019-02-08T21:15:46.504Z,28.77
2019-02-08T21:18:14.987Z,28.07
2019-02-08T21:20:43.540Z,29.07
2019-02-08T21:23:12.052Z,27.60
2019-02-08T21:25:42.133Z,29.00
2019-02-08T21:28:10.648Z,31.03
2019-02-08T21:30:39.403Z,24.57
2019-02-08T21:33:09.846Z,24.10
2019-02-08T21:35:38.307Z,30.50
2019-02-08T21:38:11.343Z,30.97
2019-02-08T21:40:39.962Z,33.10
2019-02-08T21:43:08.861Z,35.23
2019-02-08T21:45:39.872Z,35.60
2019-02-08T21:48:09.395Z,38.23
2019-02-08T21:50:39.311Z,32.27
2019-02-08T21:53:07.886Z,29.70
2019-02-08T21:55:36.369Z,26.73
2019-02-08T21:58:05.333Z,28.70
2019-02-08T22:00:36.146Z,25.00
2019-02-08T22:03:06.477Z,21.03
2019-02-08T22:05:46.492Z,22.17
2019-02-08T22:08:14.914Z,21.73
2019-02-08T22:10:43.355Z,29.03
2019-02-08T22:13:11.699Z,30.83
2019-02-08T22:15:42.208Z,33.83
2019-02-08T22:18:10.697Z,36.43
2019-02-08T22:20:39.161Z,33.30
2019-02-08T22:23:07.966Z,22.23
2019-02-08T22:25:36.982Z,20.40
2019-02-08T22:28:05.918Z,15.87
2019-02-08T22:30:34.340Z,16.40
2019-02-08T22:33:10.901Z,12.03
2019-02-08T22:35:39.434Z,9.33
2019-02-08T22:38:09.057Z,11.50
2019-02-08T22:40:37.945Z,8.50
2019-02-08T22:43:06.597Z,11.07
2019-02-08T22:45:37.552Z,10.77
2019-02-08T22:48:06.344Z,10.30
2019-02-08T22:50:34.899Z,6.60
2019-02-08T22:53:03.612Z,14.47
2019-02-08T22:55:33.528Z,7.20
2019-02-08T22:58:01.897Z,9.23
2019-02-08T23:00:38.549Z,11.23
2019-02-08T23:03:14.127Z,11.33
2019-02-08T23:05:45.745Z,12.30
2019-02-08T23:08:12.912Z,11.17
2019-02-08T23:10:41.918Z,10.27
2019-02-08T23:13:10.437Z,12.17
2019-02-08T23:15:39.417Z,9.13
2019-02-08T23:18:09.336Z,10.83
2019-02-08T23:20:37.775Z,13.47
2019-02-08T23:23:08.262Z,11.90
2019-02-08T23:25:36.700Z,9.63
2019-02-08T23:28:05.506Z,11.43
2019-02-08T23:30:33.905Z,9.17
2019-02-08T23:33:02.236Z,11.43
2019-02-08T23:35:30.799Z,10.77
2019-02-08T23:37:59.215Z,8.53
2019-02-08T23:40:27.567Z,10.00
2019-02-08T23:42:55.905Z,7.40
2019-02-08T23:45:24.340Z,6.10
2019-02-08T23:47:53.760Z,7.23
2019-02-08T23:50:23.291Z,5.50
2019-02-08T23:52:51.687Z,6.67
2019-02-08T23:55:24.985Z,2.97
2019-02-08T23:57:53.467Z,6.00
